Главная страница
METAR-TAF:

METAR-TAF

Аэропорты :

Шёвде, Швеция

широта: 58-27N, долгота: 013-58E, высота над уровнем моря: 98 м

Текущие метеонаблюдения

Эта сводка был подготовлена 25 минут назад, в 06:50 UTC
Ветер 11 Узел от западный
Температура 11°C
Влажность 66%
Давление 1000 hPa
Видимость 10 км и более

METAR: ESGR 230650Z AUTO 26011KT 9999 NCD 11/05 Q1000

Время: 09:15 (07:15 UTC)


TAF: отсутствует

Метеонаблюдения и прогнозы для более 4000 аэропортов (сводки METAR и TAF).

Имеющиеся станции представлены на карте желтыми и красными точками.

Чтобы увидеть название станции, наведите на нее мышь.

Затем щелкните, чтобы увидеть метеонаблюдения и метеопрогнозы.

Управление картой: чтобы увеличить масштаб, щелкните зеленые кнопки с черным крестиком; чтобы уменьшить масштаб, щелкните зеленую кнопку с тире; для просмотра соседних карт щелкайте зеленые стрелки.


METAR-TAF: